• Join FlightAware (Why Join?)
  • Login
  • US Flag 
04:58AM EST


 

Airport Tracker/Info


-or-


 

Live Flight TrackerFlight Track Log ✈ UPS1337 ✈ 28-Mar-2014 ✈ KPIE - KRDU

Flight Track Log - Related Links

Times and Time Zones

All times are in EDT time to prevent confusion due to time zone crossing. See the UPS1337 flight status page for this flight to view local times or setup timezone preferences in your user account.

Time Position Orientation Groundspeed Altitude Reporting Facility
EDT Latitude Longitude Course Direction KTS MPH feet Rate Location/Type
09:43PM 27.9000 -82.6833 180° South 147 169 600  Level Tampa TRACON
09:44PM 27.8833 -82.6833 180° South 164 189 2,500 3,180 Climbing Tampa TRACON
09:46PM 27.9328 -82.7611 306° West 151 174 9,800 3,120 Climbing Jacksonville Center
09:47PM 28.0267 -82.7444 North 208 239 12,700 2,820 Climbing Jacksonville Center
09:52PM 28.5648 -82.6165 13° North 449 517 25,600 2,580 Climbing FlightAware ADS-B (KMCO)
09:53PM 28.6452 -82.5970 12° North 468 539 26,500 1,500 Climbing FlightAware ADS-B (KMCO)
09:54PM 28.8394 -82.5532 12° North 496 571 28,800 720 Climbing FlightAware ADS-B (KMCO)
09:59PM 29.4720 -82.5396 359° North 480 552 31,000 360 Climbing FlightAware ADS-B (KMCO)
10:00PM 29.6008 -82.5414 359° North 474 545 31,000  Level FlightAware ADS-B (KMCO)
10:00PM 29.6461 -82.5418 North 473 544 31,000  Level FlightAware ADS-B (KMCO)
10:00PM 29.6956 -82.5353 12° North 483 556 31,000  Level FlightAware ADS-B (KMCO)
10:02PM 29.8442 -82.4987 12° North 490 564 31,000  Level FlightAware ADS-B (KMCO)
10:03PM 29.9849 -82.4643 12° North 490 564 31,000  Level FlightAware ADS-B (KMCO)
10:03PM 30.0690 -82.4437 12° North 491 565 31,000  Level FlightAware ADS-B (KMCO)
10:04PM 30.1548 -82.4226 12° North 487 560 31,000  Level FlightAware ADS-B (KMCO)
10:04PM 30.2495 -82.3993 12° North 487 560 31,000  Level FlightAware ADS-B (KMCO)
10:05PM 30.3596 -82.3722 12° North 490 564 31,000  Level FlightAware ADS-B (KMCO)
10:06PM 30.4503 -82.3496 12° North 492 566 31,000  Level FlightAware ADS-B (KMCO)
10:07PM 30.5547 -82.3238 12° North 493 567 31,000 -60 Level FlightAware ADS-B (KMCO)
10:08PM 30.7328 -82.2811 12° North 486 559 30,900 -60 Descending Jacksonville Center
10:09PM 30.8683 -82.2489 12° North 486 559 30,900  Level Jacksonville Center
10:10PM 31.0142 -82.2114 12° North 486 559 30,900  Level Jacksonville Center
10:11PM 31.1519 -82.1789 11° North 486 559 30,900 480 Level Jacksonville Center
10:12PM 31.2875 -82.1464 12° North 486 559 31,900 1,500 Climbing Jacksonville Center
10:13PM 31.4250 -82.1086 13° North 486 559 33,900 1,500 Climbing Jacksonville Center
10:14PM 31.5606 -82.0733 13° North 491 565 34,900 540 Climbing Jacksonville Center
10:15PM 31.6961 -82.0403 12° North 491 565 35,000  Climbing Jacksonville Center
10:16PM 31.8253 -82.0050 13° North 482 555 35,000  Level Jacksonville Center
10:17PM 31.9628 -81.9719 12° North 482 555 35,000  Level Jacksonville Center
10:18PM 32.0917 -81.9142 21° North 493 567 35,000  Level Jacksonville Center
10:19PM 32.2083 -81.8589 22° Northeast 493 567 35,000  Level Jacksonville Center
10:20PM 32.3517 -81.7908 22° Northeast 493 567 35,000  Level Jacksonville Center
10:21PM 32.4847 -81.7278 22° Northeast 493 567 35,000  Level Jacksonville Center
10:22PM 32.6011 -81.6719 22° Northeast 493 567 35,000  Level Jacksonville Center
10:23PM 32.7381 -81.5739 31° Northeast 503 579 35,000  Level Jacksonville Center
10:24PM 32.8644 -81.4853 30° Northeast 515 593 35,000 -60 Level Jacksonville Center
10:25PM 32.9886 -81.3967 31° Northeast 515 593 34,900  Descending Jacksonville Center
10:26PM 33.1128 -81.3053 32° Northeast 515 593 35,000  Climbing Jacksonville Center
10:27PM 33.2222 -81.2239 32° Northeast 515 593 35,000  Level Jacksonville Center
10:28PM 33.3503 -81.1319 31° Northeast 515 593 35,000 -120 Level Jacksonville Center
10:34PM 34.1064 -80.5712 32° Northeast 535 616 34,500 -360 Descending FlightAware ADS-B (KCDN)
10:35PM 34.2168 -80.4889 32° Northeast 524 603 32,800 -1,800 Descending FlightAware ADS-B (KCDN)
10:36PM 34.3478 -80.3928 32° Northeast 530 610 30,700 -1,980 Descending Jacksonville Center
10:37PM 34.4669 -80.3036 32° Northeast 515 593 28,500 -2,220 Descending Jacksonville Center
10:38PM 34.5800 -80.2169 32° Northeast 491 565 26,300 -1,920 Descending Jacksonville Center
10:40PM 34.7100 -80.1194 32° Northeast 471 542 24,200 -1,020 Descending Washington Center
10:41PM 34.8114 -80.0314 35° Northeast 454 522 24,000 -120 Descending Washington Center
10:42PM 34.9089 -79.9278 41° Northeast 454 522 24,000  Level Washington Center
10:43PM 35.0047 -79.8214 42° Northeast 454 522 24,000  Level Washington Center
10:44PM 35.0981 -79.7172 42° Northeast 454 522 24,000 -1,440 Level Washington Center
10:45PM 35.1911 -79.6153 42° Northeast 454 522 21,200 -3,300 Descending Washington Center
10:46PM 35.3047 -79.5267 32° Northeast 448 516 17,400 -3,840 Descending Washington Center
10:46PM 35.3433 -79.4981 31° Northeast 436 502 16,200 -3,240 Descending Washington Center
10:47PM 35.3986 -79.4600 29° Northeast 433 498 14,200 -2,520 Descending Washington Center
10:48PM 35.5075 -79.3836 30° Northeast 414 476 12,000 -2,220 Descending Washington Center
10:48PM 35.5100 -79.3761 68° East 392 451 12,000  Level Washington Center
10:49PM 35.5625 -79.2917 53° Northeast 375 432 12,000  Level Washington Center
10:49PM 35.5803 -79.2594 56° Northeast 380 437 12,000  Level Washington Center
10:50PM 35.6306 -79.1850 50° Northeast 361 415 12,000  Level Washington Center
10:50PM 35.6414 -79.1675 53° Northeast 328 377 12,000  Level Washington Center
10:51PM 35.6892 -79.1136 42° Northeast 332 382 12,000  Level Washington Center
10:51PM 35.7064 -79.0914 46° Northeast 324 373 12,000  Level Washington Center
10:52PM 35.7606 -79.0244 45° Northeast 324 373 12,000 -600 Level Washington Center
10:53PM 35.8231 -78.9503 44° Northeast 317 365 10,900 -1,320 Descending Washington Center
10:53PM 35.8361 -78.9331 47° Northeast 321 369 10,400 -1,800 Descending Washington Center
10:54PM 35.8917 -78.8842 35° Northeast 311 358 9,200 -1,740 Descending Washington Center
10:54PM 35.8939 -78.8817 42° Northeast 313 360 9,000 -1,200 Descending Washington Center
10:55PM 35.9622 -78.8228 35° Northeast 311 358 8,000 -960 Descending Washington Center
10:55PM 35.9772 -78.8081 38° Northeast 290 334 7,900 -1,440 Descending Washington Center
10:56PM 36.0264 -78.7639 36° Northeast 299 344 6,600 -1,920 Descending Washington Center
10:56PM 36.0414 -78.7489 39° Northeast 290 334 6,000 -1,380 Descending Washington Center
10:57PM 36.0969 -78.6972 37° Northeast 266 306 5,000 -540 Descending Washington Center
10:58PM 36.1297 -78.6394 55° Northeast 197 227 5,000 -660 Level Washington Center
10:59PM 36.0825 -78.6169 159° South 181 208 3,800 -1,020 Descending Washington Center
11:00PM 36.0342 -78.6256 188° South 172 198 3,000 -420 Descending Washington Center
11:01PM 35.9981 -78.6522 211° Southwest 177 204 3,000 -420 Level Washington Center
11:02PM 35.9594 -78.6944 222° Southwest 176 203 2,300 -780 Descending Washington Center
11:03PM 35.9356 -78.7294 230° Southwest 131 151 1,600 -780 Descending Washington Center
11:04PM 35.9075 -78.7617 223° Southwest 128 147 900 -720 Descending Washington Center
11:06PM 35.8776 -78.7875 North  Level Estimated
11:13PM 35.8776 -78.7875 North  Level Estimated
11:14PM 35.8776 -78.7875 12° North  Level Estimated
11:15PM 35.8776 -78.7875 65° Northeast  Level Estimated
11:16PM 35.8776 -78.7875 214° Southwest  Level Estimated
11:17PM 35.8776 -78.7875 163° South  Level Estimated
11:18PM 35.8776 -78.7875 North  Level Estimated
11:19PM 35.8776 -78.7875 12° North  Level Estimated
11:20PM 35.8776 -78.7875 65° Northeast  Level Estimated